sensor_id;sensor_type;location;lat;lon;timestamp;pressure;altitude;pressure_sealevel;temperature;humidity
66857;BME280;53766;50.280;19.160;2022-07-06T00:00:14;98582.81;;;23.87;53.34
66857;BME280;53766;50.280;19.160;2022-07-06T00:03:01;98579.88;;;23.88;53.31
66857;BME280;53766;50.280;19.160;2022-07-06T00:05:29;98577.91;;;23.84;53.34
66857;BME280;53766;50.280;19.160;2022-07-06T00:07:57;98581.28;;;23.91;53.09
66857;BME280;53766;50.280;19.160;2022-07-06T00:10:24;98585.75;;;23.85;53.27
66857;BME280;53766;50.280;19.160;2022-07-06T00:12:52;98582.81;;;23.87;53.20
66857;BME280;53766;50.280;19.160;2022-07-06T00:15:21;98580.81;;;23.82;53.30
66857;BME280;53766;50.280;19.160;2022-07-06T00:17:49;98577.00;;;23.78;53.22
66857;BME280;53766;50.280;19.160;2022-07-06T00:20:17;98584.22;;;23.77;53.23
66857;BME280;53766;50.280;19.160;2022-07-06T00:22:44;98578.72;;;23.72;53.43
66857;BME280;53766;50.280;19.160;2022-07-06T00:25:12;98583.16;;;23.67;53.26
66857;BME280;53766;50.280;19.160;2022-07-06T00:27:40;98577.31;;;23.70;53.10
66857;BME280;53766;50.280;19.160;2022-07-06T00:30:07;98576.84;;;23.73;53.27
66857;BME280;53766;50.280;19.160;2022-07-06T00:32:35;98576.84;;;23.61;53.39
66857;BME280;53766;50.280;19.160;2022-07-06T00:35:03;98585.59;;;23.68;53.18
66857;BME280;53766;50.280;19.160;2022-07-06T00:37:31;98583.84;;;23.62;53.16
66857;BME280;53766;50.280;19.160;2022-07-06T00:39:58;98574.16;;;23.61;53.16
66857;BME280;53766;50.280;19.160;2022-07-06T00:42:26;98576.72;;;23.56;53.26
66857;BME280;53766;50.280;19.160;2022-07-06T00:44:54;98585.50;;;23.51;53.55
66857;BME280;53766;50.280;19.160;2022-07-06T00:47:22;98591.72;;;23.52;53.29
66857;BME280;53766;50.280;19.160;2022-07-06T00:49:50;98583.97;;;23.44;53.62
66857;BME280;53766;50.280;19.160;2022-07-06T00:52:37;98580.81;;;23.47;53.62
66857;BME280;53766;50.280;19.160;2022-07-06T00:55:05;98585.97;;;23.48;53.44
66857;BME280;53766;50.280;19.160;2022-07-06T00:57:32;98589.25;;;23.50;53.70
66857;BME280;53766;50.280;19.160;2022-07-06T01:00:02;98585.25;;;23.53;53.45
66857;BME280;53766;50.280;19.160;2022-07-06T01:02:34;98590.41;;;23.54;53.39
66857;BME280;53766;50.280;19.160;2022-07-06T01:05:07;98595.44;;;23.51;53.44
66857;BME280;53766;50.280;19.160;2022-07-06T01:07:36;98596.50;;;23.50;53.32
66857;BME280;53766;50.280;19.160;2022-07-06T01:10:05;98592.63;;;23.46;53.11
66857;BME280;53766;50.280;19.160;2022-07-06T01:12:38;98590.97;;;23.45;53.33
66857;BME280;53766;50.280;19.160;2022-07-06T01:15:09;98587.25;;;23.46;53.29
66857;BME280;53766;50.280;19.160;2022-07-06T01:17:41;98585.97;;;23.48;53.21
66857;BME280;53766;50.280;19.160;2022-07-06T01:20:10;98583.06;;;23.50;52.85
66857;BME280;53766;50.280;19.160;2022-07-06T01:22:38;98583.63;;;23.52;53.11
66857;BME280;53766;50.280;19.160;2022-07-06T01:25:07;98582.22;;;23.49;52.92
66857;BME280;53766;50.280;19.160;2022-07-06T01:27:35;98588.44;;;23.50;52.81
66857;BME280;53766;50.280;19.160;2022-07-06T01:30:11;98584.69;;;23.51;52.91
66857;BME280;53766;50.280;19.160;2022-07-06T01:32:39;98582.34;;;23.54;52.88
66857;BME280;53766;50.280;19.160;2022-07-06T01:35:09;98595.09;;;23.59;52.62
66857;BME280;53766;50.280;19.160;2022-07-06T01:37:37;98585.75;;;23.50;52.66
66857;BME280;53766;50.280;19.160;2022-07-06T01:40:07;98580.47;;;23.55;52.55
66857;BME280;53766;50.280;19.160;2022-07-06T01:42:35;98576.72;;;23.56;52.28
66857;BME280;53766;50.280;19.160;2022-07-06T01:45:04;98580.13;;;23.51;52.59
66857;BME280;53766;50.280;19.160;2022-07-06T01:47:32;98580.94;;;23.52;52.56
66857;BME280;53766;50.280;19.160;2022-07-06T01:50:05;98575.09;;;23.55;52.25
66857;BME280;53766;50.280;19.160;2022-07-06T01:52:33;98585.38;;;23.58;52.22
66857;BME280;53766;50.280;19.160;2022-07-06T01:55:01;98582.81;;;23.63;52.17
66857;BME280;53766;50.280;19.160;2022-07-06T01:57:29;98586.69;;;23.67;51.94
66857;BME280;53766;50.280;19.160;2022-07-06T01:59:56;98578.13;;;23.70;51.71
66857;BME280;53766;50.280;19.160;2022-07-06T02:02:24;98585.97;;;23.72;51.75
66857;BME280;53766;50.280;19.160;2022-07-06T02:04:51;98574.38;;;23.71;51.83
66857;BME280;53766;50.280;19.160;2022-07-06T02:07:19;98583.03;;;23.73;51.64
66857;BME280;53766;50.280;19.160;2022-07-06T02:09:47;98587.00;;;23.71;51.69
66857;BME280;53766;50.280;19.160;2022-07-06T02:12:14;98595.66;;;23.61;51.84
66857;BME280;53766;50.280;19.160;2022-07-06T02:14:42;98592.84;;;23.56;51.74
66857;BME280;53766;50.280;19.160;2022-07-06T02:17:10;98591.13;;;23.50;51.69
66857;BME280;53766;50.280;19.160;2022-07-06T02:19:37;98598.00;;;23.46;51.50
66857;BME280;53766;50.280;19.160;2022-07-06T02:22:05;98583.25;;;23.36;51.72
66857;BME280;53766;50.280;19.160;2022-07-06T02:24:32;98586.06;;;23.30;51.84
66857;BME280;53766;50.280;19.160;2022-07-06T02:27:00;98587.59;;;23.26;51.87
66857;BME280;53766;50.280;19.160;2022-07-06T02:29:28;98582.56;;;23.29;52.02
66857;BME280;53766;50.280;19.160;2022-07-06T02:31:55;98582.13;;;23.32;51.83
66857;BME280;53766;50.280;19.160;2022-07-06T02:34:23;98578.84;;;23.30;51.75
66857;BME280;53766;50.280;19.160;2022-07-06T02:36:51;98580.94;;;23.28;51.70
66857;BME280;53766;50.280;19.160;2022-07-06T02:39:18;98577.31;;;23.34;51.40
66857;BME280;53766;50.280;19.160;2022-07-06T02:41:46;98574.84;;;23.45;51.47
66857;BME280;53766;50.280;19.160;2022-07-06T02:44:13;98579.78;;;23.48;51.36
66857;BME280;53766;50.280;19.160;2022-07-06T02:46:41;98581.88;;;23.46;50.92
66857;BME280;53766;50.280;19.160;2022-07-06T02:49:08;98584.78;;;23.44;51.30
66857;BME280;53766;50.280;19.160;2022-07-06T02:51:36;98582.34;;;23.42;51.17
66857;BME280;53766;50.280;19.160;2022-07-06T02:54:03;98588.06;;;23.46;51.01
66857;BME280;53766;50.280;19.160;2022-07-06T02:56:31;98585.16;;;23.48;50.84
66857;BME280;53766;50.280;19.160;2022-07-06T02:58:59;98580.13;;;23.39;50.81
66857;BME280;53766;50.280;19.160;2022-07-06T03:01:26;98588.78;;;23.41;50.84
66857;BME280;53766;50.280;19.160;2022-07-06T03:03:54;98589.81;;;23.40;50.58
66857;BME280;53766;50.280;19.160;2022-07-06T03:06:22;98584.44;;;23.40;50.64
66857;BME280;53766;50.280;19.160;2022-07-06T03:08:50;98585.59;;;23.45;50.77
66857;BME280;53766;50.280;19.160;2022-07-06T03:11:17;98579.53;;;23.49;50.38
66857;BME280;53766;50.280;19.160;2022-07-06T03:13:45;98577.19;;;23.53;50.40
66857;BME280;53766;50.280;19.160;2022-07-06T03:16:12;98585.84;;;23.55;50.37
66857;BME280;53766;50.280;19.160;2022-07-06T03:18:40;98589.56;;;23.54;50.47
66857;BME280;53766;50.280;19.160;2022-07-06T03:21:08;98588.53;;;23.55;50.12
66857;BME280;53766;50.280;19.160;2022-07-06T03:23:35;98596.03;;;23.53;50.32
66857;BME280;53766;50.280;19.160;2022-07-06T03:26:03;98600.31;;;23.54;50.26
66857;BME280;53766;50.280;19.160;2022-07-06T03:28:30;98602.47;;;23.52;50.06
66857;BME280;53766;50.280;19.160;2022-07-06T03:30:58;98607.84;;;23.52;50.25
66857;BME280;53766;50.280;19.160;2022-07-06T03:33:25;98601.97;;;23.55;49.93
66857;BME280;53766;50.280;19.160;2022-07-06T03:35:53;98606.88;;;23.58;50.13
66857;BME280;53766;50.280;19.160;2022-07-06T03:38:20;98604.78;;;23.60;50.14
66857;BME280;53766;50.280;19.160;2022-07-06T03:40:48;98602.66;;;23.62;50.03
66857;BME280;53766;50.280;19.160;2022-07-06T03:43:16;98607.34;;;23.55;50.16
66857;BME280;53766;50.280;19.160;2022-07-06T03:45:44;98604.66;;;23.55;50.06
66857;BME280;53766;50.280;19.160;2022-07-06T03:48:12;98596.13;;;23.58;50.27
66857;BME280;53766;50.280;19.160;2022-07-06T03:50:39;98593.22;;;23.59;50.30
66857;BME280;53766;50.280;19.160;2022-07-06T03:53:07;98600.56;;;23.64;50.15
66857;BME280;53766;50.280;19.160;2022-07-06T03:55:34;98592.28;;;23.66;50.29
66857;BME280;53766;50.280;19.160;2022-07-06T03:58:02;98600.56;;;23.64;50.24
66857;BME280;53766;50.280;19.160;2022-07-06T04:00:33;98604.66;;;23.67;50.15
66857;BME280;53766;50.280;19.160;2022-07-06T04:03:01;98598.00;;;23.69;50.00
66857;BME280;53766;50.280;19.160;2022-07-06T04:05:29;98599.06;;;23.68;50.30
66857;BME280;53766;50.280;19.160;2022-07-06T04:07:57;98599.63;;;23.70;49.99
66857;BME280;53766;50.280;19.160;2022-07-06T04:10:24;98605.00;;;23.70;49.91
66857;BME280;53766;50.280;19.160;2022-07-06T04:12:52;98608.78;;;23.69;50.02
66857;BME280;53766;50.280;19.160;2022-07-06T04:15:19;98612.00;;;23.71;50.04
66857;BME280;53766;50.280;19.160;2022-07-06T04:17:47;98615.91;;;23.75;50.03
66857;BME280;53766;50.280;19.160;2022-07-06T04:20:22;98615.47;;;23.78;50.04
66857;BME280;53766;50.280;19.160;2022-07-06T04:22:50;98619.75;;;23.79;49.99
66857;BME280;53766;50.280;19.160;2022-07-06T04:25:18;98621.41;;;23.80;50.13
66857;BME280;53766;50.280;19.160;2022-07-06T04:27:46;98630.06;;;23.83;50.08
66857;BME280;53766;50.280;19.160;2022-07-06T04:30:13;98646.22;;;23.83;50.03
66857;BME280;53766;50.280;19.160;2022-07-06T04:32:41;98649.50;;;23.85;49.85
66857;BME280;53766;50.280;19.160;2022-07-06T04:35:09;98653.22;;;23.84;49.88
66857;BME280;53766;50.280;19.160;2022-07-06T04:37:37;98642.19;;;23.73;50.16
66857;BME280;53766;50.280;19.160;2022-07-06T04:40:05;98657.03;;;23.64;50.09
66857;BME280;53766;50.280;19.160;2022-07-06T04:42:33;98659.28;;;23.67;50.01
66857;BME280;53766;50.280;19.160;2022-07-06T04:45:01;98661.38;;;23.65;50.07
66857;BME280;53766;50.280;19.160;2022-07-06T04:47:28;98661.22;;;23.60;50.50
66857;BME280;53766;50.280;19.160;2022-07-06T04:49:57;98664.88;;;23.66;50.12
66857;BME280;53766;50.280;19.160;2022-07-06T04:52:25;98663.00;;;23.66;50.49
66857;BME280;53766;50.280;19.160;2022-07-06T04:54:53;98664.06;;;23.65;50.47
66857;BME280;53766;50.280;19.160;2022-07-06T04:57:21;98669.66;;;23.64;50.43
66857;BME280;53766;50.280;19.160;2022-07-06T04:59:49;98670.47;;;23.64;50.68
66857;BME280;53766;50.280;19.160;2022-07-06T05:02:16;98670.47;;;23.64;50.75
66857;BME280;53766;50.280;19.160;2022-07-06T05:04:44;98666.38;;;23.61;50.38
66857;BME280;53766;50.280;19.160;2022-07-06T05:07:12;98666.16;;;23.63;50.39
66857;BME280;53766;50.280;19.160;2022-07-06T05:09:39;98667.56;;;23.66;50.56
66857;BME280;53766;50.280;19.160;2022-07-06T05:12:08;98676.81;;;23.70;50.63
66857;BME280;53766;50.280;19.160;2022-07-06T05:14:36;98674.69;;;23.72;50.71
66857;BME280;53766;50.280;19.160;2022-07-06T05:17:03;98670.13;;;23.72;50.70
66857;BME280;53766;50.280;19.160;2022-07-06T05:19:31;98669.06;;;23.73;50.67
66857;BME280;53766;50.280;19.160;2022-07-06T05:21:59;98672.81;;;23.72;50.69
66857;BME280;53766;50.280;19.160;2022-07-06T05:24:27;98670.94;;;23.73;50.93
66857;BME280;53766;50.280;19.160;2022-07-06T05:26:54;98668.03;;;23.74;50.60
66857;BME280;53766;50.280;19.160;2022-07-06T05:29:22;98659.97;;;23.74;50.91
66857;BME280;53766;50.280;19.160;2022-07-06T05:31:50;98667.84;;;23.76;50.52
66857;BME280;53766;50.280;19.160;2022-07-06T05:34:18;98667.44;;;23.72;50.60
66857;BME280;53766;50.280;19.160;2022-07-06T05:36:46;98667.44;;;23.72;51.00
66857;BME280;53766;50.280;19.160;2022-07-06T05:39:13;98669.56;;;23.70;50.68
66857;BME280;53766;50.280;19.160;2022-07-06T05:41:41;98663.81;;;23.67;51.14
66857;BME280;53766;50.280;19.160;2022-07-06T05:44:08;98666.50;;;23.67;50.63
66857;BME280;53766;50.280;19.160;2022-07-06T05:46:36;98670.47;;;23.64;50.76
66857;BME280;53766;50.280;19.160;2022-07-06T05:49:04;98663.47;;;23.63;51.08
66857;BME280;53766;50.280;19.160;2022-07-06T05:51:50;98668.00;;;23.62;50.72
66857;BME280;53766;50.280;19.160;2022-07-06T05:54:18;98672.00;;;23.60;50.63
66857;BME280;53766;50.280;19.160;2022-07-06T05:56:45;98668.84;;;23.63;50.71
66857;BME280;53766;50.280;19.160;2022-07-06T05:59:13;98675.03;;;23.64;50.92
66857;BME280;53766;50.280;19.160;2022-07-06T06:01:42;98680.78;;;23.67;50.41
66857;BME280;53766;50.280;19.160;2022-07-06T06:04:11;98674.56;;;23.67;50.45
66857;BME280;53766;50.280;19.160;2022-07-06T06:06:38;98669.66;;;23.64;50.36
66857;BME280;53766;50.280;19.160;2022-07-06T06:09:06;98669.44;;;23.65;50.30
66857;BME280;53766;50.280;19.160;2022-07-06T06:11:33;98671.16;;;23.71;50.38
66857;BME280;53766;50.280;19.160;2022-07-06T06:14:01;98674.38;;;23.80;50.44
66857;BME280;53766;50.280;19.160;2022-07-06T06:16:28;98672.84;;;23.84;50.49
66857;BME280;53766;50.280;19.160;2022-07-06T06:18:56;98668.19;;;23.79;50.17
66857;BME280;53766;50.280;19.160;2022-07-06T06:21:23;98679.75;;;23.80;50.30
66857;BME280;53766;50.280;19.160;2022-07-06T06:23:51;98681.75;;;23.85;50.45
66857;BME280;53766;50.280;19.160;2022-07-06T06:26:19;98688.28;;;23.89;50.60
66857;BME280;53766;50.280;19.160;2022-07-06T06:28:46;98676.25;;;23.91;50.55
66857;BME280;53766;50.280;19.160;2022-07-06T06:31:14;98693.34;;;23.85;50.01
66857;BME280;53766;50.280;19.160;2022-07-06T06:33:41;98696.72;;;23.80;49.86
66857;BME280;53766;50.280;19.160;2022-07-06T06:36:09;98705.81;;;23.79;50.17
66857;BME280;53766;50.280;19.160;2022-07-06T06:38:37;98704.53;;;23.82;50.20
66857;BME280;53766;50.280;19.160;2022-07-06T06:41:04;98701.84;;;23.82;50.30
66857;BME280;53766;50.280;19.160;2022-07-06T06:43:32;98706.88;;;23.78;50.17
66857;BME280;53766;50.280;19.160;2022-07-06T06:45:59;98710.75;;;23.83;50.49
66857;BME280;53766;50.280;19.160;2022-07-06T06:48:27;98710.63;;;23.77;50.20
66857;BME280;53766;50.280;19.160;2022-07-06T06:50:55;98717.75;;;23.84;50.46
66857;BME280;53766;50.280;19.160;2022-07-06T06:53:23;98724.50;;;23.74;50.08
66857;BME280;53766;50.280;19.160;2022-07-06T06:55:50;98718.88;;;23.64;50.07
66857;BME280;53766;50.280;19.160;2022-07-06T06:58:18;98725.16;;;23.58;50.15
66857;BME280;53766;50.280;19.160;2022-07-06T07:00:45;98726.22;;;23.57;50.27
66857;BME280;53766;50.280;19.160;2022-07-06T07:03:14;98729.13;;;23.44;50.33
66857;BME280;53766;50.280;19.160;2022-07-06T07:05:42;98723.84;;;23.37;50.11
66857;BME280;53766;50.280;19.160;2022-07-06T07:08:09;98729.78;;;23.27;49.64
66857;BME280;53766;50.280;19.160;2022-07-06T07:10:37;98731.63;;;23.27;49.94
66857;BME280;53766;50.280;19.160;2022-07-06T07:13:04;98726.00;;;23.16;49.90
66857;BME280;53766;50.280;19.160;2022-07-06T07:15:32;98724.28;;;23.22;49.97
66857;BME280;53766;50.280;19.160;2022-07-06T07:18:00;98722.63;;;23.21;50.07
66857;BME280;53766;50.280;19.160;2022-07-06T07:20:28;98726.16;;;23.22;49.99
66857;BME280;53766;50.280;19.160;2022-07-06T07:22:57;98733.16;;;23.23;49.84
66857;BME280;53766;50.280;19.160;2022-07-06T07:25:25;98737.00;;;23.15;49.80
66857;BME280;53766;50.280;19.160;2022-07-06T07:27:53;98742.06;;;23.05;50.06
66857;BME280;53766;50.280;19.160;2022-07-06T07:30:21;98748.03;;;22.88;50.23
66857;BME280;53766;50.280;19.160;2022-07-06T07:32:48;98750.88;;;22.93;50.32
66857;BME280;53766;50.280;19.160;2022-07-06T07:35:16;98747.13;;;22.94;50.42
66857;BME280;53766;50.280;19.160;2022-07-06T07:37:43;98753.84;;;23.04;50.44
66857;BME280;53766;50.280;19.160;2022-07-06T07:40:11;98754.16;;;22.95;50.38
66857;BME280;53766;50.280;19.160;2022-07-06T07:42:39;98760.84;;;22.86;50.59
66857;BME280;53766;50.280;19.160;2022-07-06T07:45:08;98765.19;;;22.87;50.36
66857;BME280;53766;50.280;19.160;2022-07-06T07:47:36;98765.50;;;22.79;50.28
66857;BME280;53766;50.280;19.160;2022-07-06T07:50:04;98777.06;;;22.79;50.32
66857;BME280;53766;50.280;19.160;2022-07-06T07:52:32;98782.06;;;22.76;50.38
66857;BME280;53766;50.280;19.160;2022-07-06T07:55:00;98775.81;;;22.82;50.29
66857;BME280;53766;50.280;19.160;2022-07-06T07:57:47;98785.34;;;22.78;49.96
66857;BME280;53766;50.280;19.160;2022-07-06T08:00:15;98786.75;;;22.80;49.79
66857;BME280;53766;50.280;19.160;2022-07-06T08:02:42;98790.78;;;22.71;49.50
66857;BME280;53766;50.280;19.160;2022-07-06T08:05:10;98792.97;;;22.63;49.22
66857;BME280;53766;50.280;19.160;2022-07-06T08:07:42;98807.41;;;22.62;49.26
66857;BME280;53766;50.280;19.160;2022-07-06T08:10:10;98810.84;;;22.50;49.26
66857;BME280;53766;50.280;19.160;2022-07-06T08:12:38;98796.41;;;22.45;49.37
66857;BME280;53766;50.280;19.160;2022-07-06T08:15:12;98801.19;;;22.43;49.51
66857;BME280;53766;50.280;19.160;2022-07-06T08:17:40;98792.31;;;22.42;49.27
66857;BME280;53766;50.280;19.160;2022-07-06T08:20:08;98786.97;;;22.42;49.22
66857;BME280;53766;50.280;19.160;2022-07-06T08:22:36;98790.38;;;22.49;49.28
66857;BME280;53766;50.280;19.160;2022-07-06T08:25:04;98778.69;;;22.62;49.05
66857;BME280;53766;50.280;19.160;2022-07-06T08:27:32;98777.13;;;22.73;48.92
66857;BME280;53766;50.280;19.160;2022-07-06T08:30:02;98783.25;;;22.80;49.10
66857;BME280;53766;50.280;19.160;2022-07-06T08:32:29;98775.22;;;22.80;48.66
66857;BME280;53766;50.280;19.160;2022-07-06T08:35:17;98773.41;;;22.74;48.43
66857;BME280;53766;50.280;19.160;2022-07-06T08:37:45;98769.97;;;22.67;48.62
66857;BME280;53766;50.280;19.160;2022-07-06T08:40:13;98770.13;;;22.72;48.49
66857;BME280;53766;50.280;19.160;2022-07-06T08:42:42;98778.41;;;22.70;48.71
66857;BME280;53766;50.280;19.160;2022-07-06T08:45:10;98776.59;;;22.64;48.08
66857;BME280;53766;50.280;19.160;2022-07-06T08:47:39;98773.56;;;22.61;47.97
66857;BME280;53766;50.280;19.160;2022-07-06T08:50:09;98775.06;;;22.56;47.99
66857;BME280;53766;50.280;19.160;2022-07-06T08:52:39;98769.50;;;22.51;48.20
66857;BME280;53766;50.280;19.160;2022-07-06T08:55:08;98765.34;;;22.55;48.31
66857;BME280;53766;50.280;19.160;2022-07-06T08:57:36;98767.00;;;22.56;48.42
66857;BME280;53766;50.280;19.160;2022-07-06T09:00:08;98764.31;;;22.56;47.94
66857;BME280;53766;50.280;19.160;2022-07-06T09:02:37;98760.56;;;22.57;47.77
66857;BME280;53766;50.280;19.160;2022-07-06T09:05:06;98762.38;;;22.64;47.76
66857;BME280;53766;50.280;19.160;2022-07-06T09:07:34;98761.97;;;22.60;47.72
66857;BME280;53766;50.280;19.160;2022-07-06T09:10:22;98761.56;;;22.63;47.46
66857;BME280;53766;50.280;19.160;2022-07-06T09:12:49;98759.47;;;22.65;47.38
66857;BME280;53766;50.280;19.160;2022-07-06T09:15:17;98751.16;;;22.67;47.31
66857;BME280;53766;50.280;19.160;2022-07-06T09:17:45;98747.31;;;22.63;47.39
66857;BME280;53766;50.280;19.160;2022-07-06T09:20:13;98751.63;;;22.64;47.56
66857;BME280;53766;50.280;19.160;2022-07-06T09:22:41;98737.19;;;22.65;47.34
66857;BME280;53766;50.280;19.160;2022-07-06T09:25:11;98730.97;;;22.64;47.53
66857;BME280;53766;50.280;19.160;2022-07-06T09:27:45;98722.69;;;22.66;47.17
66857;BME280;53766;50.280;19.160;2022-07-06T09:30:17;98722.84;;;22.71;47.39
66857;BME280;53766;50.280;19.160;2022-07-06T09:32:47;98726.50;;;22.76;47.16
66857;BME280;53766;50.280;19.160;2022-07-06T09:38:05;98725.50;;;22.89;47.51
66857;BME280;53766;50.280;19.160;2022-07-06T09:40:38;98728.91;;;22.96;47.64
66857;BME280;53766;50.280;19.160;2022-07-06T09:43:14;98716.31;;;22.97;47.46
66857;BME280;53766;50.280;19.160;2022-07-06T09:45:44;98725.63;;;22.94;47.41
66857;BME280;53766;50.280;19.160;2022-07-06T09:48:15;98742.06;;;22.86;47.44
66857;BME280;53766;50.280;19.160;2022-07-06T09:53:22;98741.91;;;22.99;47.50
66857;BME280;53766;50.280;19.160;2022-07-06T09:55:53;98737.56;;;22.98;47.52
66857;BME280;53766;50.280;19.160;2022-07-06T09:58:21;98739.38;;;23.05;47.15
66857;BME280;53766;50.280;19.160;2022-07-06T10:01:09;98735.94;;;22.97;46.59
66857;BME280;53766;50.280;19.160;2022-07-06T10:03:37;98739.66;;;22.96;46.85
66857;BME280;53766;50.280;19.160;2022-07-06T10:06:06;98739.66;;;22.96;46.66
66857;BME280;53766;50.280;19.160;2022-07-06T10:08:35;98739.66;;;22.96;47.06
66857;BME280;53766;50.280;19.160;2022-07-06T10:11:05;98752.88;;;22.98;46.88
66857;BME280;53766;50.280;19.160;2022-07-06T10:13:34;98749.22;;;22.92;46.84
66857;BME280;53766;50.280;19.160;2022-07-06T10:16:03;98752.66;;;22.81;46.80
66857;BME280;53766;50.280;19.160;2022-07-06T10:18:32;98762.38;;;22.82;46.75
66857;BME280;53766;50.280;19.160;2022-07-06T10:21:00;98755.66;;;22.73;46.79
66857;BME280;53766;50.280;19.160;2022-07-06T10:23:28;98764.59;;;22.85;46.69
66857;BME280;53766;50.280;19.160;2022-07-06T10:25:57;98759.59;;;22.89;47.09
66857;BME280;53766;50.280;19.160;2022-07-06T10:28:26;98764.44;;;22.98;46.97
66857;BME280;53766;50.280;19.160;2022-07-06T10:30:55;98757.44;;;22.97;46.75
66857;BME280;53766;50.280;19.160;2022-07-06T10:33:25;98750.03;;;22.93;46.90
66857;BME280;53766;50.280;19.160;2022-07-06T10:35:56;98754.59;;;22.92;46.98
66857;BME280;53766;50.280;19.160;2022-07-06T10:38:34;98749.22;;;22.92;46.76
66857;BME280;53766;50.280;19.160;2022-07-06T10:41:07;98752.44;;;23.01;46.90
66857;BME280;53766;50.280;19.160;2022-07-06T10:43:44;98756.91;;;23.07;46.66
66857;BME280;53766;50.280;19.160;2022-07-06T10:46:14;98753.53;;;23.12;46.50
66857;BME280;53766;50.280;19.160;2022-07-06T10:48:44;98766.66;;;23.20;46.49
66857;BME280;53766;50.280;19.160;2022-07-06T10:51:28;98750.53;;;23.20;46.15
66857;BME280;53766;50.280;19.160;2022-07-06T10:54:04;98749.47;;;23.21;46.25
66857;BME280;53766;50.280;19.160;2022-07-06T10:56:40;98761.75;;;23.17;45.93
66857;BME280;53766;50.280;19.160;2022-07-06T10:59:29;98761.00;;;23.10;45.69
66857;BME280;53766;50.280;19.160;2022-07-06T11:04:42;98769.38;;;23.02;45.68
66857;BME280;53766;50.280;19.160;2022-07-06T11:07:16;98770.63;;;22.99;45.40
66857;BME280;53766;50.280;19.160;2022-07-06T11:09:55;98777.88;;;22.98;45.65
66857;BME280;53766;50.280;19.160;2022-07-06T11:12:23;98776.78;;;23.06;45.63
66857;BME280;53766;50.280;19.160;2022-07-06T11:14:52;98778.44;;;23.19;46.03
66857;BME280;53766;50.280;19.160;2022-07-06T11:17:20;98777.88;;;23.17;45.79
66857;BME280;53766;50.280;19.160;2022-07-06T11:20:08;98786.97;;;23.16;45.55
66857;BME280;53766;50.280;19.160;2022-07-06T11:22:38;98771.31;;;23.13;45.31
66857;BME280;53766;50.280;19.160;2022-07-06T11:25:06;98775.19;;;23.17;45.27
66857;BME280;53766;50.280;19.160;2022-07-06T11:27:34;98776.50;;;23.26;45.55
66857;BME280;53766;50.280;19.160;2022-07-06T11:30:02;98779.31;;;23.31;45.67
66857;BME280;53766;50.280;19.160;2022-07-06T11:32:29;98776.50;;;23.26;45.11
66857;BME280;53766;50.280;19.160;2022-07-06T11:34:58;98776.50;;;23.26;45.01
66857;BME280;53766;50.280;19.160;2022-07-06T11:37:26;98773.22;;;23.24;45.13
66857;BME280;53766;50.280;19.160;2022-07-06T11:39:54;98778.13;;;23.27;45.32
66857;BME280;53766;50.280;19.160;2022-07-06T11:42:22;98770.66;;;23.29;45.21
66857;BME280;53766;50.280;19.160;2022-07-06T11:44:49;98777.69;;;23.30;45.28
66857;BME280;53766;50.280;19.160;2022-07-06T11:47:17;98781.06;;;23.26;44.91
66857;BME280;53766;50.280;19.160;2022-07-06T11:49:52;98779.50;;;23.18;44.74
66857;BME280;53766;50.280;19.160;2022-07-06T11:52:20;98773.66;;;23.21;44.75
66857;BME280;53766;50.280;19.160;2022-07-06T11:54:47;98774.25;;;23.23;45.08
66857;BME280;53766;50.280;19.160;2022-07-06T11:57:16;98765.28;;;23.29;45.65
66857;BME280;53766;50.280;19.160;2022-07-06T11:59:43;98768.94;;;23.35;45.41
66857;BME280;53766;50.280;19.160;2022-07-06T12:02:15;98764.38;;;23.35;45.55
66857;BME280;53766;50.280;19.160;2022-07-06T12:04:45;98762.88;;;23.39;45.75
66857;BME280;53766;50.280;19.160;2022-07-06T12:07:16;98763.00;;;23.45;45.58
66857;BME280;53766;50.280;19.160;2022-07-06T12:09:45;98760.47;;;23.50;45.59
66857;BME280;53766;50.280;19.160;2022-07-06T12:12:14;98757.53;;;23.51;45.74
66857;BME280;53766;50.280;19.160;2022-07-06T12:14:44;98762.09;;;23.51;45.88
66857;BME280;53766;50.280;19.160;2022-07-06T12:17:13;98766.16;;;23.41;45.58
66857;BME280;53766;50.280;19.160;2022-07-06T12:19:42;98754.69;;;23.34;44.68
66857;BME280;53766;50.280;19.160;2022-07-06T12:22:11;98743.78;;;23.29;44.75
66857;BME280;53766;50.280;19.160;2022-07-06T12:24:43;98751.53;;;23.37;45.10
66857;BME280;53766;50.280;19.160;2022-07-06T12:27:18;98744.88;;;23.40;44.85
66857;BME280;53766;50.280;19.160;2022-07-06T12:29:47;98743.69;;;23.36;44.60
66857;BME280;53766;50.280;19.160;2022-07-06T12:32:20;98740.09;;;23.30;44.81
66857;BME280;53766;50.280;19.160;2022-07-06T12:35:10;98735.13;;;23.27;44.37
66857;BME280;53766;50.280;19.160;2022-07-06T12:37:54;98735.97;;;23.28;44.72
66857;BME280;53766;50.280;19.160;2022-07-06T12:40:25;98742.50;;;23.32;45.12
66857;BME280;53766;50.280;19.160;2022-07-06T12:42:55;98743.94;;;23.34;44.75
66857;BME280;53766;50.280;19.160;2022-07-06T12:45:29;98741.69;;;23.31;44.85
66857;BME280;53766;50.280;19.160;2022-07-06T12:48:04;98738.41;;;23.29;44.95
66857;BME280;53766;50.280;19.160;2022-07-06T12:50:38;98738.78;;;23.33;44.87
66857;BME280;53766;50.280;19.160;2022-07-06T12:53:23;98736.09;;;23.33;44.92
66857;BME280;53766;50.280;19.160;2022-07-06T12:56:10;98742.16;;;23.28;44.51
66857;BME280;53766;50.280;19.160;2022-07-06T12:58:39;98736.06;;;23.21;44.39
66857;BME280;53766;50.280;19.160;2022-07-06T13:01:06;98742.63;;;23.25;44.64
66857;BME280;53766;50.280;19.160;2022-07-06T13:03:38;98735.13;;;23.27;44.30
66857;BME280;53766;50.280;19.160;2022-07-06T13:06:07;98736.44;;;23.25;44.55
66857;BME280;53766;50.280;19.160;2022-07-06T13:08:34;98730.25;;;23.24;44.45